sensor_id;sensor_type;location;lat;lon;timestamp;P1;durP1;ratioP1;P2;durP2;ratioP2
61702;SDS011;47622;47.726;3.298;2022-11-11T00:01:29;13.93;;;6.18;;
61702;SDS011;47622;47.726;3.298;2022-11-11T00:03:55;10.55;;;6.13;;
61702;SDS011;47622;47.726;3.298;2022-11-11T00:06:21;10.48;;;5.95;;
61702;SDS011;47622;47.726;3.298;2022-11-11T00:08:47;9.98;;;5.22;;
61702;SDS011;47622;47.726;3.298;2022-11-11T00:11:14;13.18;;;5.10;;
61702;SDS011;47622;47.726;3.298;2022-11-11T00:13:40;8.13;;;4.82;;
61702;SDS011;47622;47.726;3.298;2022-11-11T00:16:15;9.85;;;5.43;;
61702;SDS011;47622;47.726;3.298;2022-11-11T00:18:43;7.53;;;5.60;;
61702;SDS011;47622;47.726;3.298;2022-11-11T00:21:27;7.35;;;4.93;;
61702;SDS011;47622;47.726;3.298;2022-11-11T00:24:12;10.40;;;5.18;;
61702;SDS011;47622;47.726;3.298;2022-11-11T00:27:04;10.77;;;5.10;;
61702;SDS011;47622;47.726;3.298;2022-11-11T00:29:30;8.70;;;4.57;;
61702;SDS011;47622;47.726;3.298;2022-11-11T00:31:56;7.20;;;5.30;;
61702;SDS011;47622;47.726;3.298;2022-11-11T00:34:40;11.88;;;5.63;;
61702;SDS011;47622;47.726;3.298;2022-11-11T00:37:25;7.57;;;4.78;;
61702;SDS011;47622;47.726;3.298;2022-11-11T00:39:51;9.30;;;5.50;;
61702;SDS011;47622;47.726;3.298;2022-11-11T00:42:16;9.40;;;5.88;;
61702;SDS011;47622;47.726;3.298;2022-11-11T00:44:42;13.63;;;6.53;;
61702;SDS011;47622;47.726;3.298;2022-11-11T00:47:08;14.10;;;6.47;;
61702;SDS011;47622;47.726;3.298;2022-11-11T00:49:53;10.40;;;6.40;;
61702;SDS011;47622;47.726;3.298;2022-11-11T00:52:36;9.25;;;6.35;;
61702;SDS011;47622;47.726;3.298;2022-11-11T00:55:02;13.20;;;6.55;;
61702;SDS011;47622;47.726;3.298;2022-11-11T00:57:28;12.75;;;6.70;;
61702;SDS011;47622;47.726;3.298;2022-11-11T00:59:54;13.32;;;6.03;;
61702;SDS011;47622;47.726;3.298;2022-11-11T01:02:19;10.98;;;5.80;;
61702;SDS011;47622;47.726;3.298;2022-11-11T01:04:45;9.75;;;6.78;;
61702;SDS011;47622;47.726;3.298;2022-11-11T01:07:11;10.80;;;6.45;;
61702;SDS011;47622;47.726;3.298;2022-11-11T01:09:36;11.98;;;6.00;;
61702;SDS011;47622;47.726;3.298;2022-11-11T01:12:02;14.73;;;6.13;;
61702;SDS011;47622;47.726;3.298;2022-11-11T01:14:29;10.90;;;6.20;;
61702;SDS011;47622;47.726;3.298;2022-11-11T01:16:54;9.90;;;5.15;;
61702;SDS011;47622;47.726;3.298;2022-11-11T01:19:20;9.90;;;5.93;;
61702;SDS011;47622;47.726;3.298;2022-11-11T01:21:46;12.18;;;5.38;;
61702;SDS011;47622;47.726;3.298;2022-11-11T01:24:11;11.38;;;5.38;;
61702;SDS011;47622;47.726;3.298;2022-11-11T01:26:37;11.82;;;6.10;;
61702;SDS011;47622;47.726;3.298;2022-11-11T01:29:03;10.00;;;5.80;;
61702;SDS011;47622;47.726;3.298;2022-11-11T01:31:28;14.98;;;6.35;;
61702;SDS011;47622;47.726;3.298;2022-11-11T01:33:54;9.20;;;5.30;;
61702;SDS011;47622;47.726;3.298;2022-11-11T01:36:21;11.48;;;5.25;;
61702;SDS011;47622;47.726;3.298;2022-11-11T01:38:49;9.40;;;5.60;;
61702;SDS011;47622;47.726;3.298;2022-11-11T01:41:18;9.50;;;4.80;;
61702;SDS011;47622;47.726;3.298;2022-11-11T01:43:58;9.68;;;5.68;;
61702;SDS011;47622;47.726;3.298;2022-11-11T01:49:17;9.82;;;5.57;;
61702;SDS011;47622;47.726;3.298;2022-11-11T01:57:11;8.30;;;5.60;;
61702;SDS011;47622;47.726;3.298;2022-11-11T01:59:43;8.88;;;5.28;;
61702;SDS011;47622;47.726;3.298;2022-11-11T02:02:21;8.77;;;5.03;;
61702;SDS011;47622;47.726;3.298;2022-11-11T02:04:53;8.07;;;4.88;;
61702;SDS011;47622;47.726;3.298;2022-11-11T02:07:38;7.53;;;4.53;;
61702;SDS011;47622;47.726;3.298;2022-11-11T02:10:06;8.98;;;4.53;;
61702;SDS011;47622;47.726;3.298;2022-11-11T02:12:33;6.72;;;5.22;;
61702;SDS011;47622;47.726;3.298;2022-11-11T02:15:17;8.52;;;4.65;;
61702;SDS011;47622;47.726;3.298;2022-11-11T02:17:44;10.80;;;5.07;;
61702;SDS011;47622;47.726;3.298;2022-11-11T02:20:12;9.13;;;4.85;;
61702;SDS011;47622;47.726;3.298;2022-11-11T02:25:28;7.35;;;4.72;;
61702;SDS011;47622;47.726;3.298;2022-11-11T02:27:56;7.90;;;5.25;;
61702;SDS011;47622;47.726;3.298;2022-11-11T02:30:25;9.07;;;5.53;;
61702;SDS011;47622;47.726;3.298;2022-11-11T02:32:51;10.05;;;6.38;;
61702;SDS011;47622;47.726;3.298;2022-11-11T02:35:19;8.57;;;5.50;;
61702;SDS011;47622;47.726;3.298;2022-11-11T02:37:50;8.90;;;5.60;;
61702;SDS011;47622;47.726;3.298;2022-11-11T02:40:29;8.48;;;5.35;;
61702;SDS011;47622;47.726;3.298;2022-11-11T02:42:59;12.52;;;5.63;;
61702;SDS011;47622;47.726;3.298;2022-11-11T02:45:25;9.57;;;4.90;;
61702;SDS011;47622;47.726;3.298;2022-11-11T02:47:51;9.77;;;5.07;;
61702;SDS011;47622;47.726;3.298;2022-11-11T02:50:16;9.40;;;5.53;;
61702;SDS011;47622;47.726;3.298;2022-11-11T02:52:42;9.65;;;5.07;;
61702;SDS011;47622;47.726;3.298;2022-11-11T02:55:08;9.52;;;5.55;;
61702;SDS011;47622;47.726;3.298;2022-11-11T02:57:34;8.23;;;5.25;;
61702;SDS011;47622;47.726;3.298;2022-11-11T03:00:00;11.65;;;5.38;;
61702;SDS011;47622;47.726;3.298;2022-11-11T03:02:27;7.20;;;4.55;;
61702;SDS011;47622;47.726;3.298;2022-11-11T03:04:54;9.00;;;5.18;;
61702;SDS011;47622;47.726;3.298;2022-11-11T03:07:20;10.27;;;5.10;;
61702;SDS011;47622;47.726;3.298;2022-11-11T03:09:46;9.52;;;5.20;;
61702;SDS011;47622;47.726;3.298;2022-11-11T03:12:12;9.25;;;5.13;;
61702;SDS011;47622;47.726;3.298;2022-11-11T03:14:37;8.57;;;5.50;;
61702;SDS011;47622;47.726;3.298;2022-11-11T03:17:03;7.53;;;4.78;;
61702;SDS011;47622;47.726;3.298;2022-11-11T03:19:47;8.15;;;5.22;;
61702;SDS011;47622;47.726;3.298;2022-11-11T03:22:13;7.22;;;5.25;;
61702;SDS011;47622;47.726;3.298;2022-11-11T03:24:39;7.35;;;4.93;;
61702;SDS011;47622;47.726;3.298;2022-11-11T03:27:23;10.07;;;5.45;;
61702;SDS011;47622;47.726;3.298;2022-11-11T03:29:48;7.05;;;5.55;;
61702;SDS011;47622;47.726;3.298;2022-11-11T03:32:14;8.57;;;5.25;;
61702;SDS011;47622;47.726;3.298;2022-11-11T03:34:40;10.00;;;5.78;;
61702;SDS011;47622;47.726;3.298;2022-11-11T03:37:06;8.70;;;5.13;;
61702;SDS011;47622;47.726;3.298;2022-11-11T03:39:53;10.75;;;5.65;;
61702;SDS011;47622;47.726;3.298;2022-11-11T03:42:19;10.38;;;5.15;;
61702;SDS011;47622;47.726;3.298;2022-11-11T03:44:44;9.25;;;6.10;;
61702;SDS011;47622;47.726;3.298;2022-11-11T03:47:10;9.18;;;5.50;;
61702;SDS011;47622;47.726;3.298;2022-11-11T03:49:36;9.10;;;5.57;;
61702;SDS011;47622;47.726;3.298;2022-11-11T03:52:02;13.93;;;6.50;;
61702;SDS011;47622;47.726;3.298;2022-11-11T03:54:28;8.18;;;5.22;;
61702;SDS011;47622;47.726;3.298;2022-11-11T03:56:53;11.25;;;5.50;;
61702;SDS011;47622;47.726;3.298;2022-11-11T03:59:39;8.48;;;5.10;;
61702;SDS011;47622;47.726;3.298;2022-11-11T04:02:05;7.57;;;4.88;;
61702;SDS011;47622;47.726;3.298;2022-11-11T04:04:49;9.40;;;4.78;;
61702;SDS011;47622;47.726;3.298;2022-11-11T04:07:33;9.57;;;5.13;;
61702;SDS011;47622;47.726;3.298;2022-11-11T04:10:17;7.90;;;5.38;;
61702;SDS011;47622;47.726;3.298;2022-11-11T04:12:48;10.52;;;5.70;;
61702;SDS011;47622;47.726;3.298;2022-11-11T04:15:33;9.30;;;5.13;;
61702;SDS011;47622;47.726;3.298;2022-11-11T04:18:17;7.90;;;5.18;;
61702;SDS011;47622;47.726;3.298;2022-11-11T04:21:03;10.27;;;5.43;;
61702;SDS011;47622;47.726;3.298;2022-11-11T04:23:47;9.18;;;5.20;;
61702;SDS011;47622;47.726;3.298;2022-11-11T04:26:13;8.13;;;5.30;;
61702;SDS011;47622;47.726;3.298;2022-11-11T04:28:38;10.95;;;5.25;;
61702;SDS011;47622;47.726;3.298;2022-11-11T04:31:33;8.40;;;5.53;;
61702;SDS011;47622;47.726;3.298;2022-11-11T04:33:58;10.93;;;6.13;;
61702;SDS011;47622;47.726;3.298;2022-11-11T04:36:24;7.88;;;5.75;;
61702;SDS011;47622;47.726;3.298;2022-11-11T04:38:50;9.27;;;5.50;;
61702;SDS011;47622;47.726;3.298;2022-11-11T04:41:34;9.65;;;5.63;;
61702;SDS011;47622;47.726;3.298;2022-11-11T04:44:00;9.68;;;5.70;;
61702;SDS011;47622;47.726;3.298;2022-11-11T04:46:44;8.25;;;5.57;;
61702;SDS011;47622;47.726;3.298;2022-11-11T04:49:09;7.53;;;4.75;;
61702;SDS011;47622;47.726;3.298;2022-11-11T04:51:35;8.50;;;5.03;;
61702;SDS011;47622;47.726;3.298;2022-11-11T04:54:19;8.60;;;5.32;;
61702;SDS011;47622;47.726;3.298;2022-11-11T04:56:45;8.05;;;5.47;;
61702;SDS011;47622;47.726;3.298;2022-11-11T04:59:14;10.68;;;5.20;;
61702;SDS011;47622;47.726;3.298;2022-11-11T05:01:40;10.15;;;5.05;;
61702;SDS011;47622;47.726;3.298;2022-11-11T05:04:25;8.90;;;4.53;;
61702;SDS011;47622;47.726;3.298;2022-11-11T05:06:51;7.90;;;5.03;;
61702;SDS011;47622;47.726;3.298;2022-11-11T05:09:35;8.82;;;5.10;;
61702;SDS011;47622;47.726;3.298;2022-11-11T05:12:01;6.80;;;4.68;;
61702;SDS011;47622;47.726;3.298;2022-11-11T05:14:27;9.68;;;5.28;;
61702;SDS011;47622;47.726;3.298;2022-11-11T05:17:12;11.60;;;5.20;;
61702;SDS011;47622;47.726;3.298;2022-11-11T05:19:56;9.75;;;5.70;;
61702;SDS011;47622;47.726;3.298;2022-11-11T05:22:41;7.50;;;4.85;;
61702;SDS011;47622;47.726;3.298;2022-11-11T05:25:07;7.43;;;4.53;;
61702;SDS011;47622;47.726;3.298;2022-11-11T05:30:17;6.50;;;3.97;;
61702;SDS011;47622;47.726;3.298;2022-11-11T05:32:44;9.65;;;5.50;;
61702;SDS011;47622;47.726;3.298;2022-11-11T05:35:10;13.75;;;5.82;;
61702;SDS011;47622;47.726;3.298;2022-11-11T05:37:37;9.65;;;5.35;;
61702;SDS011;47622;47.726;3.298;2022-11-11T05:40:03;8.57;;;5.22;;
61702;SDS011;47622;47.726;3.298;2022-11-11T05:42:30;12.15;;;5.40;;
61702;SDS011;47622;47.726;3.298;2022-11-11T05:44:55;7.47;;;5.10;;
61702;SDS011;47622;47.726;3.298;2022-11-11T05:47:21;13.02;;;5.03;;
61702;SDS011;47622;47.726;3.298;2022-11-11T05:49:47;9.82;;;5.15;;
61702;SDS011;47622;47.726;3.298;2022-11-11T05:52:13;7.50;;;4.90;;
61702;SDS011;47622;47.726;3.298;2022-11-11T05:54:40;8.13;;;5.05;;
61702;SDS011;47622;47.726;3.298;2022-11-11T05:57:06;8.45;;;5.25;;
61702;SDS011;47622;47.726;3.298;2022-11-11T05:59:32;8.35;;;5.00;;
61702;SDS011;47622;47.726;3.298;2022-11-11T06:01:58;8.68;;;4.68;;
61702;SDS011;47622;47.726;3.298;2022-11-11T06:04:23;8.77;;;5.18;;
61702;SDS011;47622;47.726;3.298;2022-11-11T06:06:50;9.48;;;5.38;;
61702;SDS011;47622;47.726;3.298;2022-11-11T06:09:16;10.20;;;5.28;;
61702;SDS011;47622;47.726;3.298;2022-11-11T06:11:42;9.82;;;6.28;;
61702;SDS011;47622;47.726;3.298;2022-11-11T06:14:08;8.32;;;6.20;;
61702;SDS011;47622;47.726;3.298;2022-11-11T06:16:33;9.15;;;5.28;;
61702;SDS011;47622;47.726;3.298;2022-11-11T06:18:59;12.02;;;6.15;;
61702;SDS011;47622;47.726;3.298;2022-11-11T06:21:28;7.72;;;5.43;;
61702;SDS011;47622;47.726;3.298;2022-11-11T06:23:55;7.93;;;5.45;;
61702;SDS011;47622;47.726;3.298;2022-11-11T06:26:20;9.80;;;5.88;;
61702;SDS011;47622;47.726;3.298;2022-11-11T06:28:50;9.35;;;5.28;;
61702;SDS011;47622;47.726;3.298;2022-11-11T06:31:18;7.07;;;4.88;;
61702;SDS011;47622;47.726;3.298;2022-11-11T06:33:45;8.13;;;4.75;;
61702;SDS011;47622;47.726;3.298;2022-11-11T06:36:11;8.82;;;4.50;;
61702;SDS011;47622;47.726;3.298;2022-11-11T06:38:39;10.40;;;4.78;;
61702;SDS011;47622;47.726;3.298;2022-11-11T06:41:05;8.77;;;4.63;;
61702;SDS011;47622;47.726;3.298;2022-11-11T06:43:31;6.32;;;4.70;;
61702;SDS011;47622;47.726;3.298;2022-11-11T06:45:57;7.80;;;5.10;;
61702;SDS011;47622;47.726;3.298;2022-11-11T06:48:24;8.32;;;5.35;;
61702;SDS011;47622;47.726;3.298;2022-11-11T06:50:50;8.15;;;4.95;;
61702;SDS011;47622;47.726;3.298;2022-11-11T06:53:17;9.95;;;5.15;;
61702;SDS011;47622;47.726;3.298;2022-11-11T06:55:44;8.43;;;5.38;;
61702;SDS011;47622;47.726;3.298;2022-11-11T06:58:10;7.82;;;4.40;;
61702;SDS011;47622;47.726;3.298;2022-11-11T07:00:38;6.50;;;4.63;;
61702;SDS011;47622;47.726;3.298;2022-11-11T07:03:06;7.03;;;4.40;;
61702;SDS011;47622;47.726;3.298;2022-11-11T07:05:33;7.03;;;4.30;;
61702;SDS011;47622;47.726;3.298;2022-11-11T07:08:02;6.05;;;4.22;;
61702;SDS011;47622;47.726;3.298;2022-11-11T07:10:30;6.65;;;4.72;;
61702;SDS011;47622;47.726;3.298;2022-11-11T07:12:56;8.32;;;4.70;;
61702;SDS011;47622;47.726;3.298;2022-11-11T07:15:23;7.00;;;4.80;;
61702;SDS011;47622;47.726;3.298;2022-11-11T07:17:49;7.13;;;4.43;;
61702;SDS011;47622;47.726;3.298;2022-11-11T07:20:15;5.93;;;4.45;;
61702;SDS011;47622;47.726;3.298;2022-11-11T07:22:40;8.60;;;4.35;;
61702;SDS011;47622;47.726;3.298;2022-11-11T07:25:06;7.60;;;3.67;;
61702;SDS011;47622;47.726;3.298;2022-11-11T07:27:35;5.88;;;4.32;;
61702;SDS011;47622;47.726;3.298;2022-11-11T07:30:02;6.00;;;3.60;;
61702;SDS011;47622;47.726;3.298;2022-11-11T07:32:28;6.35;;;4.03;;
61702;SDS011;47622;47.726;3.298;2022-11-11T07:34:54;6.70;;;4.30;;
61702;SDS011;47622;47.726;3.298;2022-11-11T07:37:19;5.13;;;3.85;;
61702;SDS011;47622;47.726;3.298;2022-11-11T07:39:45;4.95;;;3.58;;
61702;SDS011;47622;47.726;3.298;2022-11-11T07:42:10;7.47;;;3.88;;
61702;SDS011;47622;47.726;3.298;2022-11-11T07:44:36;6.47;;;4.53;;
61702;SDS011;47622;47.726;3.298;2022-11-11T07:47:02;6.95;;;4.10;;
61702;SDS011;47622;47.726;3.298;2022-11-11T07:49:27;6.20;;;3.60;;
61702;SDS011;47622;47.726;3.298;2022-11-11T07:51:53;6.05;;;3.70;;
61702;SDS011;47622;47.726;3.298;2022-11-11T07:54:19;5.95;;;4.28;;
61702;SDS011;47622;47.726;3.298;2022-11-11T07:56:44;5.60;;;4.10;;
61702;SDS011;47622;47.726;3.298;2022-11-11T07:59:10;5.88;;;4.07;;
61702;SDS011;47622;47.726;3.298;2022-11-11T08:01:35;5.57;;;3.75;;
61702;SDS011;47622;47.726;3.298;2022-11-11T08:04:01;4.13;;;3.03;;
61702;SDS011;47622;47.726;3.298;2022-11-11T08:06:27;4.22;;;3.22;;
61702;SDS011;47622;47.726;3.298;2022-11-11T08:08:52;6.07;;;3.25;;
61702;SDS011;47622;47.726;3.298;2022-11-11T08:11:18;3.97;;;2.95;;
61702;SDS011;47622;47.726;3.298;2022-11-11T08:14:04;4.35;;;3.13;;
61702;SDS011;47622;47.726;3.298;2022-11-11T08:16:30;4.10;;;3.10;;
61702;SDS011;47622;47.726;3.298;2022-11-11T08:18:55;4.47;;;3.22;;
61702;SDS011;47622;47.726;3.298;2022-11-11T08:21:22;4.78;;;3.17;;
61702;SDS011;47622;47.726;3.298;2022-11-11T08:23:49;4.35;;;3.47;;
61702;SDS011;47622;47.726;3.298;2022-11-11T08:26:16;5.15;;;3.20;;
61702;SDS011;47622;47.726;3.298;2022-11-11T08:28:42;3.65;;;3.17;;
61702;SDS011;47622;47.726;3.298;2022-11-11T08:31:08;4.80;;;3.60;;
61702;SDS011;47622;47.726;3.298;2022-11-11T08:33:34;4.82;;;3.60;;
61702;SDS011;47622;47.726;3.298;2022-11-11T08:36:00;6.10;;;3.60;;
61702;SDS011;47622;47.726;3.298;2022-11-11T08:38:27;5.00;;;3.67;;
61702;SDS011;47622;47.726;3.298;2022-11-11T08:40:53;4.45;;;3.40;;
61702;SDS011;47622;47.726;3.298;2022-11-11T08:43:19;5.35;;;3.72;;
61702;SDS011;47622;47.726;3.298;2022-11-11T08:45:46;5.30;;;4.20;;
61702;SDS011;47622;47.726;3.298;2022-11-11T08:48:12;5.20;;;3.92;;
61702;SDS011;47622;47.726;3.298;2022-11-11T08:50:38;5.25;;;3.75;;
61702;SDS011;47622;47.726;3.298;2022-11-11T08:53:06;5.43;;;4.22;;
61702;SDS011;47622;47.726;3.298;2022-11-11T08:55:33;6.13;;;4.20;;
61702;SDS011;47622;47.726;3.298;2022-11-11T08:58:01;6.28;;;4.20;;
61702;SDS011;47622;47.726;3.298;2022-11-11T09:00:28;5.55;;;4.13;;
61702;SDS011;47622;47.726;3.298;2022-11-11T09:02:54;6.95;;;4.50;;
61702;SDS011;47622;47.726;3.298;2022-11-11T09:05:28;6.25;;;4.18;;
61702;SDS011;47622;47.726;3.298;2022-11-11T09:07:54;4.88;;;4.00;;
61702;SDS011;47622;47.726;3.298;2022-11-11T09:10:20;7.15;;;4.25;;
61702;SDS011;47622;47.726;3.298;2022-11-11T09:12:46;5.30;;;3.90;;
61702;SDS011;47622;47.726;3.298;2022-11-11T09:15:12;5.85;;;4.30;;
61702;SDS011;47622;47.726;3.298;2022-11-11T09:17:38;5.20;;;4.00;;
61702;SDS011;47622;47.726;3.298;2022-11-11T09:20:03;5.82;;;4.15;;
61702;SDS011;47622;47.726;3.298;2022-11-11T09:22:29;5.25;;;4.00;;
61702;SDS011;47622;47.726;3.298;2022-11-11T09:24:55;4.45;;;3.72;;
61702;SDS011;47622;47.726;3.298;2022-11-11T09:27:21;7.35;;;4.50;;
61702;SDS011;47622;47.726;3.298;2022-11-11T09:29:47;5.88;;;4.15;;
61702;SDS011;47622;47.726;3.298;2022-11-11T09:32:13;6.20;;;3.97;;
61702;SDS011;47622;47.726;3.298;2022-11-11T09:34:38;5.38;;;4.22;;
61702;SDS011;47622;47.726;3.298;2022-11-11T09:37:04;6.22;;;4.43;;
61702;SDS011;47622;47.726;3.298;2022-11-11T09:39:30;5.97;;;4.43;;
61702;SDS011;47622;47.726;3.298;2022-11-11T09:44:38;5.00;;;3.85;;
61702;SDS011;47622;47.726;3.298;2022-11-11T09:50:08;7.43;;;4.20;;
61702;SDS011;47622;47.726;3.298;2022-11-11T09:52:40;6.45;;;4.78;;
61702;SDS011;47622;47.726;3.298;2022-11-11T09:58:13;8.40;;;4.63;;
61702;SDS011;47622;47.726;3.298;2022-11-11T10:00:48;6.10;;;4.68;;
61702;SDS011;47622;47.726;3.298;2022-11-11T10:03:28;7.15;;;5.00;;
61702;SDS011;47622;47.726;3.298;2022-11-11T10:06:01;6.47;;;4.70;;
61702;SDS011;47622;47.726;3.298;2022-11-11T10:08:41;8.38;;;5.55;;
61702;SDS011;47622;47.726;3.298;2022-11-11T10:14:17;6.72;;;4.57;;
61702;SDS011;47622;47.726;3.298;2022-11-11T10:19:25;6.57;;;5.03;;
61702;SDS011;47622;47.726;3.298;2022-11-11T10:21:56;6.68;;;4.32;;
61702;SDS011;47622;47.726;3.298;2022-11-11T10:24:30;7.13;;;4.30;;
61702;SDS011;47622;47.726;3.298;2022-11-11T10:27:02;4.97;;;3.90;;
61702;SDS011;47622;47.726;3.298;2022-11-11T10:29:39;7.75;;;4.55;;
61702;SDS011;47622;47.726;3.298;2022-11-11T10:32:31;6.25;;;4.45;;
61702;SDS011;47622;47.726;3.298;2022-11-11T10:35:03;4.80;;;3.70;;
61702;SDS011;47622;47.726;3.298;2022-11-11T10:37:40;5.50;;;4.07;;
61702;SDS011;47622;47.726;3.298;2022-11-11T10:40:23;5.72;;;4.15;;
61702;SDS011;47622;47.726;3.298;2022-11-11T10:42:58;4.00;;;3.60;;
61702;SDS011;47622;47.726;3.298;2022-11-11T10:45:29;3.75;;;3.40;;
61702;SDS011;47622;47.726;3.298;2022-11-11T10:48:38;3.85;;;3.15;;
61702;SDS011;47622;47.726;3.298;2022-11-11T10:51:02;6.68;;;3.50;;
61702;SDS011;47622;47.726;3.298;2022-11-11T10:53:33;6.28;;;3.00;;
61702;SDS011;47622;47.726;3.298;2022-11-11T10:56:23;3.70;;;3.00;;
61702;SDS011;47622;47.726;3.298;2022-11-11T10:58:57;4.72;;;3.08;;
61702;SDS011;47622;47.726;3.298;2022-11-11T11:01:51;3.60;;;2.80;;
61702;SDS011;47622;47.726;3.298;2022-11-11T11:06:55;4.15;;;3.33;;
61702;SDS011;47622;47.726;3.298;2022-11-11T11:09:30;5.90;;;3.22;;
61702;SDS011;47622;47.726;3.298;2022-11-11T11:14:57;6.25;;;3.05;;
61702;SDS011;47622;47.726;3.298;2022-11-11T11:17:30;4.75;;;3.05;;
61702;SDS011;47622;47.726;3.298;2022-11-11T11:20:06;6.18;;;3.42;;
61702;SDS011;47622;47.726;3.298;2022-11-11T11:22:43;3.80;;;3.20;;
61702;SDS011;47622;47.726;3.298;2022-11-11T11:25:13;6.55;;;3.55;;
61702;SDS011;47622;47.726;3.298;2022-11-11T11:27:40;4.55;;;2.90;;
61702;SDS011;47622;47.726;3.298;2022-11-11T11:30:16;3.83;;;3.15;;
61702;SDS011;47622;47.726;3.298;2022-11-11T11:37:54;4.57;;;3.05;;
61702;SDS011;47622;47.726;3.298;2022-11-11T11:40:20;3.30;;;3.00;;
61702;SDS011;47622;47.726;3.298;2022-11-11T11:42:46;6.72;;;3.22;;
61702;SDS011;47622;47.726;3.298;2022-11-11T11:45:18;4.88;;;3.30;;
61702;SDS011;47622;47.726;3.298;2022-11-11T11:50:41;4.88;;;3.10;;
61702;SDS011;47622;47.726;3.298;2022-11-11T11:56:16;7.07;;;3.10;;
61702;SDS011;47622;47.726;3.298;2022-11-11T11:58:52;3.35;;;2.92;;
61702;SDS011;47622;47.726;3.298;2022-11-11T12:18:17;2.78;;;2.47;;
61702;SDS011;47622;47.726;3.298;2022-11-11T12:21:06;3.78;;;3.00;;
61702;SDS011;47622;47.726;3.298;2022-11-11T12:32:02;3.88;;;2.50;;
61702;SDS011;47622;47.726;3.298;2022-11-11T12:37:30;2.75;;;2.10;;
61702;SDS011;47622;47.726;3.298;2022-11-11T12:43:06;2.67;;;2.20;;
61702;SDS011;47622;47.726;3.298;2022-11-11T12:48:50;2.60;;;2.40;;
61702;SDS011;47622;47.726;3.298;2022-11-11T12:51:45;3.28;;;2.03;;
61702;SDS011;47622;47.726;3.298;2022-11-11T12:57:29;4.03;;;1.95;;
61702;SDS011;47622;47.726;3.298;2022-11-11T13:00:03;2.53;;;1.83;;
61702;SDS011;47622;47.726;3.298;2022-11-11T13:05:13;3.30;;;2.00;;
61702;SDS011;47622;47.726;3.298;2022-11-11T13:15:17;2.50;;;1.75;;
61702;SDS011;47622;47.726;3.298;2022-11-11T13:17:46;3.30;;;2.30;;
61702;SDS011;47622;47.726;3.298;2022-11-11T13:22:50;4.97;;;3.45;;
61702;SDS011;47622;47.726;3.298;2022-11-11T13:25:25;3.30;;;1.77;;
61702;SDS011;47622;47.726;3.298;2022-11-11T13:28:02;4.07;;;1.88;;
61702;SDS011;47622;47.726;3.298;2022-11-11T13:33:10;3.13;;;2.15;;
61702;SDS011;47622;47.726;3.298;2022-11-11T13:38:24;2.63;;;2.08;;
61702;SDS011;47622;47.726;3.298;2022-11-11T13:41:06;3.20;;;2.13;;
61702;SDS011;47622;47.726;3.298;2022-11-11T13:43:39;6.05;;;2.63;;
61702;SDS011;47622;47.726;3.298;2022-11-11T13:46:11;3.65;;;2.33;;
61702;SDS011;47622;47.726;3.298;2022-11-11T13:51:21;2.72;;;1.80;;
61702;SDS011;47622;47.726;3.298;2022-11-11T13:53:51;4.90;;;2.20;;
61702;SDS011;47622;47.726;3.298;2022-11-11T13:58:57;3.67;;;1.98;;
61702;SDS011;47622;47.726;3.298;2022-11-11T14:01:23;2.80;;;2.08;;
61702;SDS011;47622;47.726;3.298;2022-11-11T14:03:58;2.40;;;2.05;;
61702;SDS011;47622;47.726;3.298;2022-11-11T14:08:52;2.28;;;2.00;;
61702;SDS011;47622;47.726;3.298;2022-11-11T14:13:50;3.00;;;2.27;;
61702;SDS011;47622;47.726;3.298;2022-11-11T14:21:54;3.65;;;2.33;;
61702;SDS011;47622;47.726;3.298;2022-11-11T14:29:50;3.63;;;2.40;;
61702;SDS011;47622;47.726;3.298;2022-11-11T14:38:18;3.00;;;2.20;;
61702;SDS011;47622;47.726;3.298;2022-11-11T14:40:52;4.07;;;2.28;;
61702;SDS011;47622;47.726;3.298;2022-11-11T14:46:08;2.20;;;2.00;;
61702;SDS011;47622;47.726;3.298;2022-11-11T14:48:51;2.30;;;1.90;;
61702;SDS011;47622;47.726;3.298;2022-11-11T14:54:06;4.13;;;2.10;;
61702;SDS011;47622;47.726;3.298;2022-11-11T14:56:43;2.97;;;1.83;;
61702;SDS011;47622;47.726;3.298;2022-11-11T14:59:09;3.13;;;2.20;;
61702;SDS011;47622;47.726;3.298;2022-11-11T15:01:39;1.92;;;1.73;;
61702;SDS011;47622;47.726;3.298;2022-11-11T15:04:04;3.42;;;2.20;;
61702;SDS011;47622;47.726;3.298;2022-11-11T15:12:12;2.60;;;2.00;;
61702;SDS011;47622;47.726;3.298;2022-11-11T15:20:50;2.60;;;1.95;;
61702;SDS011;47622;47.726;3.298;2022-11-11T15:26:19;3.05;;;2.38;;
61702;SDS011;47622;47.726;3.298;2022-11-11T15:29:04;4.18;;;2.33;;
61702;SDS011;47622;47.726;3.298;2022-11-11T15:31:41;2.28;;;2.00;;
61702;SDS011;47622;47.726;3.298;2022-11-11T15:37:11;3.08;;;2.33;;
61702;SDS011;47622;47.726;3.298;2022-11-11T15:39:41;2.50;;;2.03;;
61702;SDS011;47622;47.726;3.298;2022-11-11T15:42:12;3.42;;;2.13;;
61702;SDS011;47622;47.726;3.298;2022-11-11T15:44:58;2.67;;;2.08;;
61702;SDS011;47622;47.726;3.298;2022-11-11T15:47:25;2.45;;;1.90;;
61702;SDS011;47622;47.726;3.298;2022-11-11T15:49:53;3.42;;;2.05;;
61702;SDS011;47622;47.726;3.298;2022-11-11T15:54:49;4.22;;;2.70;;
61702;SDS011;47622;47.726;3.298;2022-11-11T15:59:54;5.00;;;2.85;;
61702;SDS011;47622;47.726;3.298;2022-11-11T16:02:22;4.78;;;3.00;;
61702;SDS011;47622;47.726;3.298;2022-11-11T16:07:49;5.18;;;2.90;;
61702;SDS011;47622;47.726;3.298;2022-11-11T16:10:25;4.63;;;3.08;;
61702;SDS011;47622;47.726;3.298;2022-11-11T16:13:03;6.55;;;3.70;;
61702;SDS011;47622;47.726;3.298;2022-11-11T16:17:58;6.43;;;3.60;;
61702;SDS011;47622;47.726;3.298;2022-11-11T16:20:30;3.60;;;2.65;;
61702;SDS011;47622;47.726;3.298;2022-11-11T16:23:00;4.10;;;2.40;;
61702;SDS011;47622;47.726;3.298;2022-11-11T16:25:28;3.45;;;2.70;;
61702;SDS011;47622;47.726;3.298;2022-11-11T16:27:55;3.13;;;2.70;;
61702;SDS011;47622;47.726;3.298;2022-11-11T16:30:34;5.45;;;2.92;;
61702;SDS011;47622;47.726;3.298;2022-11-11T16:33:01;4.47;;;2.60;;
61702;SDS011;47622;47.726;3.298;2022-11-11T16:38:00;2.63;;;2.30;;
61702;SDS011;47622;47.726;3.298;2022-11-11T16:43:56;3.45;;;2.70;;
61702;SDS011;47622;47.726;3.298;2022-11-11T16:46:07;6.95;;;2.70;;
61702;SDS011;47622;47.726;3.298;2022-11-11T16:48:38;6.07;;;2.85;;
61702;SDS011;47622;47.726;3.298;2022-11-11T16:51:10;3.85;;;2.90;;
61702;SDS011;47622;47.726;3.298;2022-11-11T16:53:41;3.45;;;2.45;;
61702;SDS011;47622;47.726;3.298;2022-11-11T16:56:15;3.33;;;2.80;;
61702;SDS011;47622;47.726;3.298;2022-11-11T16:58:55;3.97;;;3.35;;
61702;SDS011;47622;47.726;3.298;2022-11-11T17:01:27;3.67;;;3.30;;
61702;SDS011;47622;47.726;3.298;2022-11-11T17:03:58;6.55;;;3.83;;
61702;SDS011;47622;47.726;3.298;2022-11-11T17:09:53;6.60;;;3.88;;
61702;SDS011;47622;47.726;3.298;2022-11-11T17:12:02;5.80;;;3.10;;
61702;SDS011;47622;47.726;3.298;2022-11-11T17:14:33;4.32;;;3.00;;
61702;SDS011;47622;47.726;3.298;2022-11-11T17:17:00;5.03;;;4.00;;
61702;SDS011;47622;47.726;3.298;2022-11-11T17:19:28;5.57;;;4.65;;
61702;SDS011;47622;47.726;3.298;2022-11-11T17:22:02;4.53;;;4.07;;
61702;SDS011;47622;47.726;3.298;2022-11-11T17:24:29;5.03;;;4.28;;
61702;SDS011;47622;47.726;3.298;2022-11-11T17:26:55;5.60;;;4.70;;
61702;SDS011;47622;47.726;3.298;2022-11-11T17:29:21;5.97;;;4.80;;
61702;SDS011;47622;47.726;3.298;2022-11-11T17:31:46;6.10;;;5.03;;
61702;SDS011;47622;47.726;3.298;2022-11-11T17:34:12;7.03;;;4.40;;
61702;SDS011;47622;47.726;3.298;2022-11-11T17:36:38;5.22;;;4.72;;
61702;SDS011;47622;47.726;3.298;2022-11-11T17:39:03;6.60;;;5.40;;
61702;SDS011;47622;47.726;3.298;2022-11-11T17:41:29;7.95;;;5.63;;
61702;SDS011;47622;47.726;3.298;2022-11-11T17:43:55;6.47;;;5.18;;
61702;SDS011;47622;47.726;3.298;2022-11-11T17:46:21;8.23;;;5.22;;
61702;SDS011;47622;47.726;3.298;2022-11-11T17:48:47;6.80;;;6.07;;
61702;SDS011;47622;47.726;3.298;2022-11-11T17:51:16;5.72;;;4.63;;
61702;SDS011;47622;47.726;3.298;2022-11-11T17:53:43;4.88;;;4.22;;